sensor_id;sensor_type;location;lat;lon;timestamp;pressure;altitude;pressure_sealevel;temperature;humidity
35489;BME280;21602;55.670;37.578;2023-04-15T00:00:38;100302.84;;;2.26;31.59
35489;BME280;21602;55.670;37.578;2023-04-15T00:03:05;100313.25;;;2.28;31.96
35489;BME280;21602;55.670;37.578;2023-04-15T00:05:31;100321.66;;;2.31;32.43
35489;BME280;21602;55.670;37.578;2023-04-15T00:07:57;100321.16;;;2.28;31.80
35489;BME280;21602;55.670;37.578;2023-04-15T00:10:24;100318.16;;;2.23;31.47
35489;BME280;21602;55.670;37.578;2023-04-15T00:12:50;100326.38;;;2.20;31.74
35489;BME280;21602;55.670;37.578;2023-04-15T00:15:17;100323.06;;;2.18;31.85
35489;BME280;21602;55.670;37.578;2023-04-15T00:17:42;100324.88;;;2.17;31.82
35489;BME280;21602;55.670;37.578;2023-04-15T00:20:10;100331.59;;;2.12;31.94
35489;BME280;21602;55.670;37.578;2023-04-15T00:22:35;100337.31;;;2.07;32.01
35489;BME280;21602;55.670;37.578;2023-04-15T00:25:01;100336.31;;;2.08;31.74
35489;BME280;21602;55.670;37.578;2023-04-15T00:27:28;100342.69;;;1.97;31.92
35489;BME280;21602;55.670;37.578;2023-04-15T00:29:55;100337.06;;;1.92;31.73
35489;BME280;21602;55.670;37.578;2023-04-15T00:32:21;100337.97;;;1.83;31.98
35489;BME280;21602;55.670;37.578;2023-04-15T00:34:47;100340.22;;;1.78;32.03
35489;BME280;21602;55.670;37.578;2023-04-15T00:37:14;100350.09;;;1.76;32.46
35489;BME280;21602;55.670;37.578;2023-04-15T00:39:40;100355.94;;;1.88;32.34
35489;BME280;21602;55.670;37.578;2023-04-15T00:42:06;100356.31;;;1.93;32.55
35489;BME280;21602;55.670;37.578;2023-04-15T00:44:32;100354.81;;;1.90;31.99
35489;BME280;21602;55.670;37.578;2023-04-15T00:46:59;100361.22;;;1.88;32.27
35489;BME280;21602;55.670;37.578;2023-04-15T00:49:28;100361.66;;;1.83;32.56
35489;BME280;21602;55.670;37.578;2023-04-15T00:51:54;100361.22;;;1.88;32.75
35489;BME280;21602;55.670;37.578;2023-04-15T00:54:20;100365.50;;;1.89;32.45
35489;BME280;21602;55.670;37.578;2023-04-15T00:56:48;100364.81;;;1.87;32.32
35489;BME280;21602;55.670;37.578;2023-04-15T00:59:16;100370.72;;;1.81;32.26
35489;BME280;21602;55.670;37.578;2023-04-15T01:01:44;100373.09;;;1.74;32.42
35489;BME280;21602;55.670;37.578;2023-04-15T01:04:09;100367.75;;;1.66;32.63
35489;BME280;21602;55.670;37.578;2023-04-15T01:06:36;100376.63;;;1.65;32.72
35489;BME280;21602;55.670;37.578;2023-04-15T01:09:02;100376.09;;;1.61;32.78
35489;BME280;21602;55.670;37.578;2023-04-15T01:11:29;100377.78;;;1.62;32.84
35489;BME280;21602;55.670;37.578;2023-04-15T01:13:55;100375.81;;;1.64;32.89
35489;BME280;21602;55.670;37.578;2023-04-15T01:16:23;100379.97;;;1.67;32.86
35489;BME280;21602;55.670;37.578;2023-04-15T01:18:49;100383.72;;;1.64;33.05
35489;BME280;21602;55.670;37.578;2023-04-15T01:21:15;100389.25;;;1.61;32.95
35489;BME280;21602;55.670;37.578;2023-04-15T01:23:43;100397.59;;;1.57;32.96
35489;BME280;21602;55.670;37.578;2023-04-15T01:26:12;100394.22;;;1.46;33.01
35489;BME280;21602;55.670;37.578;2023-04-15T01:28:38;100401.44;;;1.44;33.27
35489;BME280;21602;55.670;37.578;2023-04-15T01:31:05;100394.53;;;1.43;33.20
35489;BME280;21602;55.670;37.578;2023-04-15T01:33:35;100397.69;;;1.47;33.15
35489;BME280;21602;55.670;37.578;2023-04-15T01:36:19;100401.16;;;1.47;33.27
35489;BME280;21602;55.670;37.578;2023-04-15T01:38:45;100405.28;;;1.50;33.47
35489;BME280;21602;55.670;37.578;2023-04-15T01:41:13;100416.94;;;1.47;33.44
35489;BME280;21602;55.670;37.578;2023-04-15T01:43:40;100409.84;;;1.30;33.48
35489;BME280;21602;55.670;37.578;2023-04-15T01:46:09;100411.56;;;1.21;33.59
35489;BME280;21602;55.670;37.578;2023-04-15T01:48:36;100414.56;;;1.26;33.67
35489;BME280;21602;55.670;37.578;2023-04-15T01:51:03;100414.28;;;1.30;33.66
35489;BME280;21602;55.670;37.578;2023-04-15T01:53:31;100417.56;;;1.32;33.54
35489;BME280;21602;55.670;37.578;2023-04-15T01:55:59;100407.13;;;1.22;33.49
35489;BME280;21602;55.670;37.578;2023-04-15T01:58:26;100420.09;;;1.23;34.30
35489;BME280;21602;55.670;37.578;2023-04-15T02:00:53;100433.69;;;1.28;33.79
35489;BME280;21602;55.670;37.578;2023-04-15T02:03:20;100433.09;;;1.35;33.75
35489;BME280;21602;55.670;37.578;2023-04-15T02:05:47;100431.16;;;1.27;33.44
35489;BME280;21602;55.670;37.578;2023-04-15T02:08:14;100434.69;;;1.18;33.60
35489;BME280;21602;55.670;37.578;2023-04-15T02:10:42;100441.75;;;1.17;33.78
35489;BME280;21602;55.670;37.578;2023-04-15T02:13:09;100436.50;;;1.17;34.14
35489;BME280;21602;55.670;37.578;2023-04-15T02:15:36;100442.44;;;1.19;34.57
35489;BME280;21602;55.670;37.578;2023-04-15T02:18:03;100442.44;;;1.19;33.78
35489;BME280;21602;55.670;37.578;2023-04-15T02:20:30;100452.66;;;1.22;33.97
35489;BME280;21602;55.670;37.578;2023-04-15T02:22:58;100440.19;;;1.24;34.05
35489;BME280;21602;55.670;37.578;2023-04-15T02:25:25;100451.56;;;1.25;33.65
35489;BME280;21602;55.670;37.578;2023-04-15T02:27:52;100461.38;;;1.23;33.75
35489;BME280;21602;55.670;37.578;2023-04-15T02:30:19;100458.34;;;1.18;33.64
35489;BME280;21602;55.670;37.578;2023-04-15T02:32:46;100451.44;;;1.17;33.59
35489;BME280;21602;55.670;37.578;2023-04-15T02:35:14;100462.25;;;1.14;33.80
35489;BME280;21602;55.670;37.578;2023-04-15T02:37:41;100461.13;;;1.16;33.72
35489;BME280;21602;55.670;37.578;2023-04-15T02:40:12;100475.69;;;1.11;33.70
35489;BME280;21602;55.670;37.578;2023-04-15T02:42:40;100469.19;;;1.15;33.79
35489;BME280;21602;55.670;37.578;2023-04-15T02:45:11;100481.06;;;1.19;34.76
35489;BME280;21602;55.670;37.578;2023-04-15T02:47:39;100484.09;;;1.24;33.94
35489;BME280;21602;55.670;37.578;2023-04-15T02:50:11;100488.53;;;1.14;33.89
35489;BME280;21602;55.670;37.578;2023-04-15T02:52:40;100485.53;;;1.09;33.93
35489;BME280;21602;55.670;37.578;2023-04-15T02:55:08;100482.22;;;1.07;34.05
35489;BME280;21602;55.670;37.578;2023-04-15T02:57:36;100492.50;;;1.00;34.05
35489;BME280;21602;55.670;37.578;2023-04-15T03:00:07;100491.41;;;0.93;34.30
35489;BME280;21602;55.670;37.578;2023-04-15T03:02:39;100498.59;;;1.00;34.21
35489;BME280;21602;55.670;37.578;2023-04-15T03:05:13;100499.13;;;0.94;34.14
35489;BME280;21602;55.670;37.578;2023-04-15T03:07:47;100503.44;;;0.95;34.47
35489;BME280;21602;55.670;37.578;2023-04-15T03:10:14;100504.63;;;1.11;34.62
35489;BME280;21602;55.670;37.578;2023-04-15T03:12:41;100507.81;;;1.14;34.15
35489;BME280;21602;55.670;37.578;2023-04-15T03:15:11;100506.25;;;1.21;35.13
35489;BME280;21602;55.670;37.578;2023-04-15T03:17:43;100505.66;;;1.27;34.25
35489;BME280;21602;55.670;37.578;2023-04-15T03:20:10;100505.56;;;1.19;33.86
35489;BME280;21602;55.670;37.578;2023-04-15T03:22:37;100507.38;;;1.19;34.68
35489;BME280;21602;55.670;37.578;2023-04-15T03:25:06;100513.16;;;1.22;34.72
35489;BME280;21602;55.670;37.578;2023-04-15T03:27:33;100510.41;;;1.24;34.51
35489;BME280;21602;55.670;37.578;2023-04-15T03:30:03;100512.69;;;1.37;34.47
35489;BME280;21602;55.670;37.578;2023-04-15T03:32:31;100514.22;;;1.39;35.09
35489;BME280;21602;55.670;37.578;2023-04-15T03:34:58;100524.72;;;1.39;37.97
35489;BME280;21602;55.670;37.578;2023-04-15T03:37:25;100522.22;;;1.47;34.78
35489;BME280;21602;55.670;37.578;2023-04-15T03:39:53;100522.22;;;1.47;35.62
35489;BME280;21602;55.670;37.578;2023-04-15T03:42:20;100526.81;;;1.63;35.75
35489;BME280;21602;55.670;37.578;2023-04-15T03:44:47;100533.63;;;1.84;34.78
35489;BME280;21602;55.670;37.578;2023-04-15T03:47:14;100537.72;;;1.96;34.91
35489;BME280;21602;55.670;37.578;2023-04-15T03:49:41;100540.34;;;1.96;34.04
35489;BME280;21602;55.670;37.578;2023-04-15T03:52:08;100539.44;;;1.87;34.09
35489;BME280;21602;55.670;37.578;2023-04-15T03:54:35;100544.91;;;1.76;34.18
35489;BME280;21602;55.670;37.578;2023-04-15T03:57:02;100536.09;;;1.67;34.38
35489;BME280;21602;55.670;37.578;2023-04-15T03:59:29;100540.03;;;1.81;35.74
35489;BME280;21602;55.670;37.578;2023-04-15T04:01:57;100542.44;;;1.92;35.53
35489;BME280;21602;55.670;37.578;2023-04-15T04:04:24;100540.81;;;1.91;34.20
35489;BME280;21602;55.670;37.578;2023-04-15T04:06:51;100545.38;;;1.89;35.39
35489;BME280;21602;55.670;37.578;2023-04-15T04:09:18;100551.84;;;1.77;34.87
35489;BME280;21602;55.670;37.578;2023-04-15T04:11:45;100546.84;;;1.74;35.44
35489;BME280;21602;55.670;37.578;2023-04-15T04:14:12;100552.81;;;1.94;34.36
35489;BME280;21602;55.670;37.578;2023-04-15T04:16:39;100541.28;;;2.04;35.29
35489;BME280;21602;55.670;37.578;2023-04-15T04:19:06;100542.59;;;2.09;35.40
35489;BME280;21602;55.670;37.578;2023-04-15T04:21:33;100556.28;;;1.94;33.83
35489;BME280;21602;55.670;37.578;2023-04-15T04:24:00;100554.94;;;1.90;34.71
35489;BME280;21602;55.670;37.578;2023-04-15T04:26:27;100558.91;;;1.94;33.63
35489;BME280;21602;55.670;37.578;2023-04-15T04:28:54;100563.63;;;2.00;34.02
35489;BME280;21602;55.670;37.578;2023-04-15T04:31:21;100564.34;;;1.93;34.36
35489;BME280;21602;55.670;37.578;2023-04-15T04:33:49;100567.06;;;2.01;34.61
35489;BME280;21602;55.670;37.578;2023-04-15T04:36:16;100559.78;;;2.13;35.14
35489;BME280;21602;55.670;37.578;2023-04-15T04:38:43;100568.66;;;2.12;34.06
35489;BME280;21602;55.670;37.578;2023-04-15T04:41:10;100562.91;;;1.98;33.78
35489;BME280;21602;55.670;37.578;2023-04-15T04:43:37;100571.53;;;2.00;34.28
35489;BME280;21602;55.670;37.578;2023-04-15T04:46:04;100568.94;;;2.09;34.71
35489;BME280;21602;55.670;37.578;2023-04-15T04:48:31;100568.16;;;2.26;34.54
35489;BME280;21602;55.670;37.578;2023-04-15T04:50:59;100564.31;;;2.38;34.57
35489;BME280;21602;55.670;37.578;2023-04-15T04:53:27;100563.34;;;2.39;33.85
35489;BME280;21602;55.670;37.578;2023-04-15T04:55:54;100568.38;;;2.50;33.93
35489;BME280;21602;55.670;37.578;2023-04-15T04:58:23;100561.53;;;2.58;34.41
35489;BME280;21602;55.670;37.578;2023-04-15T05:00:49;100565.09;;;2.74;34.99
35489;BME280;21602;55.670;37.578;2023-04-15T05:03:17;100567.34;;;2.61;33.41
35489;BME280;21602;55.670;37.578;2023-04-15T05:05:44;100566.19;;;2.46;34.98
35489;BME280;21602;55.670;37.578;2023-04-15T05:08:11;100572.00;;;2.49;33.55
35489;BME280;21602;55.670;37.578;2023-04-15T05:10:38;100566.63;;;2.41;33.46
35489;BME280;21602;55.670;37.578;2023-04-15T05:13:05;100564.81;;;2.42;33.72
35489;BME280;21602;55.670;37.578;2023-04-15T05:15:32;100563.78;;;2.35;34.01
35489;BME280;21602;55.670;37.578;2023-04-15T05:18:00;100576.22;;;2.24;33.73
35489;BME280;21602;55.670;37.578;2023-04-15T05:20:27;100581.59;;;2.23;33.93
35489;BME280;21602;55.670;37.578;2023-04-15T05:22:54;100575.59;;;2.13;33.88
35489;BME280;21602;55.670;37.578;2023-04-15T05:25:21;100574.63;;;2.14;34.49
35489;BME280;21602;55.670;37.578;2023-04-15T05:27:48;100583.13;;;2.25;34.33
35489;BME280;21602;55.670;37.578;2023-04-15T05:30:16;100571.78;;;2.43;33.86
35489;BME280;21602;55.670;37.578;2023-04-15T05:32:43;100583.00;;;2.63;33.94
35489;BME280;21602;55.670;37.578;2023-04-15T05:35:10;100580.19;;;2.64;34.35
35489;BME280;21602;55.670;37.578;2023-04-15T05:37:37;100582.53;;;2.49;33.21
35489;BME280;21602;55.670;37.578;2023-04-15T05:40:04;100586.91;;;2.41;33.45
35489;BME280;21602;55.670;37.578;2023-04-15T05:42:31;100587.13;;;2.47;34.21
35489;BME280;21602;55.670;37.578;2023-04-15T05:44:58;100588.63;;;2.50;34.07
35489;BME280;21602;55.670;37.578;2023-04-15T05:47:25;100589.16;;;2.53;33.43
35489;BME280;21602;55.670;37.578;2023-04-15T05:49:53;100591.50;;;2.56;33.77
35489;BME280;21602;55.670;37.578;2023-04-15T05:52:21;100581.66;;;2.85;34.41
35489;BME280;21602;55.670;37.578;2023-04-15T05:54:48;100590.44;;;3.11;33.65
35489;BME280;21602;55.670;37.578;2023-04-15T05:57:15;100594.06;;;3.10;32.98
35489;BME280;21602;55.670;37.578;2023-04-15T05:59:42;100594.72;;;3.12;33.68
35489;BME280;21602;55.670;37.578;2023-04-15T06:02:10;100598.16;;;3.30;34.57
35489;BME280;21602;55.670;37.578;2023-04-15T06:04:37;100598.44;;;3.53;33.00
35489;BME280;21602;55.670;37.578;2023-04-15T06:07:05;100597.94;;;3.50;32.50
35489;BME280;21602;55.670;37.578;2023-04-15T06:09:32;100599.78;;;3.57;32.96
35489;BME280;21602;55.670;37.578;2023-04-15T06:11:59;100604.56;;;3.54;32.35
35489;BME280;21602;55.670;37.578;2023-04-15T06:14:27;100605.31;;;3.38;32.64
35489;BME280;21602;55.670;37.578;2023-04-15T06:16:54;100596.72;;;3.10;32.52
35489;BME280;21602;55.670;37.578;2023-04-15T06:19:21;100607.47;;;3.17;32.68
35489;BME280;21602;55.670;37.578;2023-04-15T06:21:49;100603.69;;;3.19;32.37
35489;BME280;21602;55.670;37.578;2023-04-15T06:24:17;100600.00;;;3.12;32.21
35489;BME280;21602;55.670;37.578;2023-04-15T06:26:44;100612.47;;;3.02;32.25
35489;BME280;21602;55.670;37.578;2023-04-15T06:29:11;100607.56;;;3.07;32.24
35489;BME280;21602;55.670;37.578;2023-04-15T06:31:38;100612.53;;;3.10;32.31
35489;BME280;21602;55.670;37.578;2023-04-15T06:34:06;100609.38;;;3.06;32.52
35489;BME280;21602;55.670;37.578;2023-04-15T06:36:33;100609.22;;;3.08;33.47
35489;BME280;21602;55.670;37.578;2023-04-15T06:39:00;100613.56;;;3.17;33.20
35489;BME280;21602;55.670;37.578;2023-04-15T06:41:28;100606.63;;;3.16;33.23
35489;BME280;21602;55.670;37.578;2023-04-15T06:43:55;100613.63;;;3.25;33.21
35489;BME280;21602;55.670;37.578;2023-04-15T06:46:22;100615.22;;;3.44;32.51
35489;BME280;21602;55.670;37.578;2023-04-15T06:48:49;100620.28;;;3.64;33.05
35489;BME280;21602;55.670;37.578;2023-04-15T06:51:16;100618.34;;;3.74;31.75
35489;BME280;21602;55.670;37.578;2023-04-15T06:53:43;100618.88;;;3.77;32.39
35489;BME280;21602;55.670;37.578;2023-04-15T06:56:11;100614.75;;;3.83;31.80
35489;BME280;21602;55.670;37.578;2023-04-15T06:58:38;100624.03;;;3.87;31.73
35489;BME280;21602;55.670;37.578;2023-04-15T07:01:05;100619.28;;;3.99;33.00
35489;BME280;21602;55.670;37.578;2023-04-15T07:03:32;100629.00;;;3.98;31.87
35489;BME280;21602;55.670;37.578;2023-04-15T07:05:59;100622.06;;;3.97;31.78
35489;BME280;21602;55.670;37.578;2023-04-15T07:08:27;100618.44;;;3.98;31.53
35489;BME280;21602;55.670;37.578;2023-04-15T07:10:54;100618.63;;;3.97;31.57
35489;BME280;21602;55.670;37.578;2023-04-15T07:13:21;100609.22;;;3.94;32.47
35489;BME280;21602;55.670;37.578;2023-04-15T07:15:48;100614.19;;;4.05;32.76
35489;BME280;21602;55.670;37.578;2023-04-15T07:18:16;100620.81;;;4.18;31.89
35489;BME280;21602;55.670;37.578;2023-04-15T07:20:44;100616.53;;;4.17;31.52
35489;BME280;21602;55.670;37.578;2023-04-15T07:23:11;100616.53;;;4.08;31.84
35489;BME280;21602;55.670;37.578;2023-04-15T07:25:39;100620.25;;;3.90;30.58
35489;BME280;21602;55.670;37.578;2023-04-15T07:28:06;100622.72;;;3.91;30.51
35489;BME280;21602;55.670;37.578;2023-04-15T07:30:33;100613.19;;;4.06;32.06
35489;BME280;21602;55.670;37.578;2023-04-15T07:33:01;100611.44;;;4.23;32.24
35489;BME280;21602;55.670;37.578;2023-04-15T07:35:28;100611.00;;;4.60;33.19
35489;BME280;21602;55.670;37.578;2023-04-15T07:37:58;100620.09;;;4.58;30.27
35489;BME280;21602;55.670;37.578;2023-04-15T07:40:25;100612.47;;;4.47;30.91
35489;BME280;21602;55.670;37.578;2023-04-15T07:42:55;100608.34;;;4.44;30.80
35489;BME280;21602;55.670;37.578;2023-04-15T07:45:23;100605.00;;;4.34;30.23
35489;BME280;21602;55.670;37.578;2023-04-15T07:47:50;100613.47;;;4.38;30.16
35489;BME280;21602;55.670;37.578;2023-04-15T07:50:18;100610.00;;;4.37;33.46
35489;BME280;21602;55.670;37.578;2023-04-15T07:52:45;100605.72;;;4.52;31.78
35489;BME280;21602;55.670;37.578;2023-04-15T07:55:13;100609.97;;;4.45;31.12
35489;BME280;21602;55.670;37.578;2023-04-15T07:57:42;100614.97;;;4.65;30.87
35489;BME280;21602;55.670;37.578;2023-04-15T08:00:09;100608.38;;;4.77;29.87
35489;BME280;21602;55.670;37.578;2023-04-15T08:02:39;100600.78;;;4.66;29.86
35489;BME280;21602;55.670;37.578;2023-04-15T08:05:07;100614.28;;;4.54;29.79
35489;BME280;21602;55.670;37.578;2023-04-15T08:07:36;100615.13;;;4.63;29.71
35489;BME280;21602;55.670;37.578;2023-04-15T08:10:04;100611.34;;;4.66;29.37
35489;BME280;21602;55.670;37.578;2023-04-15T08:12:31;100616.63;;;4.66;29.49
35489;BME280;21602;55.670;37.578;2023-04-15T08:14:58;100628.19;;;4.56;28.86
35489;BME280;21602;55.670;37.578;2023-04-15T08:17:26;100626.22;;;4.67;29.25
35489;BME280;21602;55.670;37.578;2023-04-15T08:19:54;100621.59;;;4.77;28.94
35489;BME280;21602;55.670;37.578;2023-04-15T08:22:21;100609.69;;;4.97;29.48
35489;BME280;21602;55.670;37.578;2023-04-15T08:24:48;100608.38;;;5.09;28.25
35489;BME280;21602;55.670;37.578;2023-04-15T08:27:15;100617.94;;;5.10;27.96
35489;BME280;21602;55.670;37.578;2023-04-15T08:29:42;100613.97;;;5.23;28.88
35489;BME280;21602;55.670;37.578;2023-04-15T08:32:09;100608.81;;;5.29;27.99
35489;BME280;21602;55.670;37.578;2023-04-15T08:34:36;100616.25;;;5.34;27.30
35489;BME280;21602;55.670;37.578;2023-04-15T08:37:03;100610.97;;;5.34;27.30
35489;BME280;21602;55.670;37.578;2023-04-15T08:39:30;100604.03;;;5.33;29.18
35489;BME280;21602;55.670;37.578;2023-04-15T08:42:02;100605.50;;;5.35;28.32
35489;BME280;21602;55.670;37.578;2023-04-15T08:44:31;100601.69;;;5.46;29.30
35489;BME280;21602;55.670;37.578;2023-04-15T08:47:00;100606.28;;;5.52;28.35
35489;BME280;21602;55.670;37.578;2023-04-15T08:49:28;100607.31;;;5.51;27.73
35489;BME280;21602;55.670;37.578;2023-04-15T08:51:59;100605.78;;;5.57;27.78
35489;BME280;21602;55.670;37.578;2023-04-15T08:54:27;100597.94;;;5.80;27.77
35489;BME280;21602;55.670;37.578;2023-04-15T08:56:56;100584.75;;;6.03;27.72
35489;BME280;21602;55.670;37.578;2023-04-15T08:59:24;100592.09;;;6.24;27.65
35489;BME280;21602;55.670;37.578;2023-04-15T09:01:52;100594.06;;;6.30;27.22
35489;BME280;21602;55.670;37.578;2023-04-15T09:04:21;100594.06;;;6.30;26.96
35489;BME280;21602;55.670;37.578;2023-04-15T09:06:48;100591.69;;;6.35;26.33
35489;BME280;21602;55.670;37.578;2023-04-15T09:09:15;100577.38;;;6.44;27.39
35489;BME280;21602;55.670;37.578;2023-04-15T09:11:42;100593.66;;;6.64;30.79
35489;BME280;21602;55.670;37.578;2023-04-15T09:14:10;100594.91;;;6.76;28.43
35489;BME280;21602;55.670;37.578;2023-04-15T09:17:00;100595.72;;;6.77;25.69
35489;BME280;21602;55.670;37.578;2023-04-15T09:19:28;100585.09;;;6.77;28.01
35489;BME280;21602;55.670;37.578;2023-04-15T09:21:58;100595.41;;;6.95;29.08
35489;BME280;21602;55.670;37.578;2023-04-15T09:24:35;100589.38;;;7.01;25.98
35489;BME280;21602;55.670;37.578;2023-04-15T09:27:03;100582.38;;;6.85;25.87
35489;BME280;21602;55.670;37.578;2023-04-15T09:29:31;100591.53;;;6.82;25.44
35489;BME280;21602;55.670;37.578;2023-04-15T09:32:14;100580.50;;;6.93;25.29
35489;BME280;21602;55.670;37.578;2023-04-15T09:34:42;100595.41;;;6.95;25.71
35489;BME280;21602;55.670;37.578;2023-04-15T09:37:09;100589.00;;;6.89;25.36
35489;BME280;21602;55.670;37.578;2023-04-15T09:39:50;100589.34;;;6.86;25.37
35489;BME280;21602;55.670;37.578;2023-04-15T09:42:18;100599.59;;;6.89;25.51
35489;BME280;21602;55.670;37.578;2023-04-15T09:44:54;100582.47;;;6.91;24.99
35489;BME280;21602;55.670;37.578;2023-04-15T09:47:31;100587.53;;;7.01;24.82
35489;BME280;21602;55.670;37.578;2023-04-15T09:50:01;100591.50;;;7.05;25.03
35489;BME280;21602;55.670;37.578;2023-04-15T09:52:40;100580.13;;;7.11;25.09
35489;BME280;21602;55.670;37.578;2023-04-15T09:55:11;100591.41;;;7.13;24.84
35489;BME280;21602;55.670;37.578;2023-04-15T09:57:39;100588.97;;;7.27;25.02
35489;BME280;21602;55.670;37.578;2023-04-15T10:00:24;100590.81;;;7.41;24.77
35489;BME280;21602;55.670;37.578;2023-04-15T10:02:51;100584.31;;;7.58;25.06
35489;BME280;21602;55.670;37.578;2023-04-15T10:05:19;100588.03;;;7.64;24.65
35489;BME280;21602;55.670;37.578;2023-04-15T10:07:52;100600.16;;;7.66;24.07
35489;BME280;21602;55.670;37.578;2023-04-15T10:10:20;100594.03;;;7.66;24.02
35489;BME280;21602;55.670;37.578;2023-04-15T10:12:48;100593.66;;;7.84;24.25
35489;BME280;21602;55.670;37.578;2023-04-15T10:15:15;100583.06;;;8.05;24.63
35489;BME280;21602;55.670;37.578;2023-04-15T10:17:44;100586.03;;;8.32;24.42
35489;BME280;21602;55.670;37.578;2023-04-15T10:20:11;100580.44;;;8.27;24.49
35489;BME280;21602;55.670;37.578;2023-04-15T10:22:41;100581.88;;;8.44;23.75
35489;BME280;21602;55.670;37.578;2023-04-15T10:25:09;100571.00;;;8.60;23.88
35489;BME280;21602;55.670;37.578;2023-04-15T10:27:38;100571.28;;;8.72;23.98
35489;BME280;21602;55.670;37.578;2023-04-15T10:30:11;100574.13;;;8.92;23.96
35489;BME280;21602;55.670;37.578;2023-04-15T10:32:38;100570.69;;;8.98;23.91
35489;BME280;21602;55.670;37.578;2023-04-15T10:35:07;100576.84;;;8.98;23.19
35489;BME280;21602;55.670;37.578;2023-04-15T10:37:36;100578.31;;;8.80;22.79
35489;BME280;21602;55.670;37.578;2023-04-15T10:40:29;100567.81;;;8.71;23.38
35489;BME280;21602;55.670;37.578;2023-04-15T10:43:03;100582.13;;;8.49;23.12
35489;BME280;21602;55.670;37.578;2023-04-15T10:45:36;100575.03;;;8.56;23.50
35489;BME280;21602;55.670;37.578;2023-04-15T10:48:09;100576.84;;;8.77;23.49
35489;BME280;21602;55.670;37.578;2023-04-15T10:50:36;100581.84;;;8.87;22.94
35489;BME280;21602;55.670;37.578;2023-04-15T10:53:03;100578.19;;;8.66;22.86
35489;BME280;21602;55.670;37.578;2023-04-15T10:55:32;100575.53;;;8.66;23.19
35489;BME280;21602;55.670;37.578;2023-04-15T10:58:00;100572.56;;;8.76;23.13
35489;BME280;21602;55.670;37.578;2023-04-15T11:00:29;100575.75;;;8.65;22.70
35489;BME280;21602;55.670;37.578;2023-04-15T11:03:07;100572.31;;;8.71;23.14
35489;BME280;21602;55.670;37.578;2023-04-15T11:08:11;100572.00;;;8.59;22.84
35489;BME280;21602;55.670;37.578;2023-04-15T11:13:16;100567.63;;;8.52;23.74
35489;BME280;21602;55.670;37.578;2023-04-15T11:15:46;100569.53;;;8.58;23.78
35489;BME280;21602;55.670;37.578;2023-04-15T11:18:17;100567.69;;;8.80;23.56
35489;BME280;21602;55.670;37.578;2023-04-15T11:21:11;100557.41;;;9.05;25.03
35489;BME280;21602;55.670;37.578;2023-04-15T11:23:40;100559.69;;;9.36;25.96
35489;BME280;21602;55.670;37.578;2023-04-15T11:26:12;100552.13;;;9.81;24.59
35489;BME280;21602;55.670;37.578;2023-04-15T11:28:41;100554.97;;;9.79;23.38
35489;BME280;21602;55.670;37.578;2023-04-15T11:31:15;100544.50;;;9.78;23.08
35489;BME280;21602;55.670;37.578;2023-04-15T11:33:45;100540.50;;;9.54;23.48
35489;BME280;21602;55.670;37.578;2023-04-15T11:36:13;100543.34;;;9.45;23.53
35489;BME280;21602;55.670;37.578;2023-04-15T11:38:45;100551.47;;;9.31;23.48
35489;BME280;21602;55.670;37.578;2023-04-15T11:41:13;100551.72;;;9.42;23.86
35489;BME280;21602;55.670;37.578;2023-04-15T11:43:41;100546.66;;;9.54;24.46
35489;BME280;21602;55.670;37.578;2023-04-15T11:46:08;100546.31;;;9.64;23.63
35489;BME280;21602;55.670;37.578;2023-04-15T11:48:35;100545.69;;;9.68;23.29
35489;BME280;21602;55.670;37.578;2023-04-15T11:51:06;100541.97;;;9.63;22.83
35489;BME280;21602;55.670;37.578;2023-04-15T11:53:49;100538.47;;;9.56;23.23
35489;BME280;21602;55.670;37.578;2023-04-15T11:56:25;100535.88;;;9.75;23.97
35489;BME280;21602;55.670;37.578;2023-04-15T11:58:57;100532.84;;;9.92;23.81
35489;BME280;21602;55.670;37.578;2023-04-15T12:03:58;100522.97;;;10.60;24.11
35489;BME280;21602;55.670;37.578;2023-04-15T12:06:31;100521.94;;;10.88;24.93
35489;BME280;21602;55.670;37.578;2023-04-15T12:09:02;100520.50;;;10.98;23.08
35489;BME280;21602;55.670;37.578;2023-04-15T12:11:34;100524.63;;;10.61;23.20
35489;BME280;21602;55.670;37.578;2023-04-15T12:16:45;100518.63;;;10.39;22.61
35489;BME280;21602;55.670;37.578;2023-04-15T12:19:17;100519.84;;;10.30;22.81
35489;BME280;21602;55.670;37.578;2023-04-15T12:21:45;100513.91;;;10.35;22.61
35489;BME280;21602;55.670;37.578;2023-04-15T12:24:12;100520.28;;;10.34;22.79
35489;BME280;21602;55.670;37.578;2023-04-15T12:26:52;100521.31;;;10.33;22.50
35489;BME280;21602;55.670;37.578;2023-04-15T12:29:23;100520.84;;;10.22;22.79
35489;BME280;21602;55.670;37.578;2023-04-15T12:31:51;100526.19;;;10.22;22.81
35489;BME280;21602;55.670;37.578;2023-04-15T12:35:03;100511.63;;;10.25;23.33
35489;BME280;21602;55.670;37.578;2023-04-15T12:37:06;100521.25;;;10.19;22.83
35489;BME280;21602;55.670;37.578;2023-04-15T12:39:43;100510.41;;;10.28;23.92
35489;BME280;21602;55.670;37.578;2023-04-15T12:42:10;100510.13;;;10.09;23.21
35489;BME280;21602;55.670;37.578;2023-04-15T12:44:37;100520.16;;;10.00;23.30
35489;BME280;21602;55.670;37.578;2023-04-15T12:47:04;100519.38;;;10.07;23.54
35489;BME280;21602;55.670;37.578;2023-04-15T12:49:31;100519.00;;;10.16;23.19
35489;BME280;21602;55.670;37.578;2023-04-15T12:51:59;100518.56;;;10.19;23.13
35489;BME280;21602;55.670;37.578;2023-04-15T12:54:25;100514.88;;;10.20;22.72
35489;BME280;21602;55.670;37.578;2023-04-15T12:56:53;100516.50;;;10.08;23.04
35489;BME280;21602;55.670;37.578;2023-04-15T12:59:19;100507.69;;;10.08;22.95
35489;BME280;21602;55.670;37.578;2023-04-15T13:01:47;100509.91;;;10.04;22.96
35489;BME280;21602;55.670;37.578;2023-04-15T13:04:14;100518.53;;;9.93;23.13
35489;BME280;21602;55.670;37.578;2023-04-15T13:06:41;100514.00;;;9.93;22.96